createdAt,value
2024-02-29T00:02:17.669Z,18.83
2024-02-29T00:06:19.243Z,24.87
2024-02-29T00:10:20.712Z,20.60
2024-02-29T00:14:21.780Z,20.90
2024-02-29T00:18:22.896Z,23.93
2024-02-29T00:22:24.157Z,21.63
2024-02-29T00:26:25.393Z,22.57
2024-02-29T00:30:26.470Z,27.30
2024-02-29T00:34:30.748Z,24.70
2024-02-29T00:38:31.934Z,28.77
2024-02-29T00:42:33.318Z,26.83
2024-02-29T00:46:38.963Z,28.27
2024-02-29T00:50:39.975Z,29.50
2024-02-29T00:54:41.299Z,27.33
2024-02-29T00:58:42.432Z,29.53
2024-02-29T01:02:43.876Z,33.23
2024-02-29T01:06:45.084Z,35.33
2024-02-29T01:10:47.657Z,37.30
2024-02-29T01:14:48.791Z,34.60
2024-02-29T01:18:49.986Z,36.40
2024-02-29T01:22:51.619Z,34.40
2024-02-29T01:26:52.620Z,34.80
2024-02-29T01:30:53.668Z,30.77
2024-02-29T01:34:54.678Z,34.90
2024-02-29T01:38:55.719Z,31.97
2024-02-29T01:42:56.752Z,30.27
2024-02-29T01:46:57.890Z,34.47
2024-02-29T01:50:59.925Z,32.37
2024-02-29T01:55:03.462Z,29.73
2024-02-29T01:59:05.683Z,30.37
2024-02-29T02:03:06.802Z,35.57
2024-02-29T02:07:09.676Z,35.93
2024-02-29T02:11:10.946Z,35.67
2024-02-29T02:15:12.663Z,34.87
2024-02-29T02:19:14.020Z,30.63
2024-02-29T02:23:15.022Z,35.13
2024-02-29T02:27:16.193Z,33.00
2024-02-29T02:31:17.272Z,36.13
2024-02-29T02:35:18.441Z,41.47
2024-02-29T02:39:19.549Z,34.53
2024-02-29T02:43:20.700Z,36.87
2024-02-29T02:47:21.759Z,37.67
2024-02-29T02:51:27.074Z,37.83
2024-02-29T02:55:28.142Z,38.33
2024-02-29T02:59:29.160Z,39.10
2024-02-29T03:03:30.241Z,41.33
2024-02-29T03:07:31.373Z,41.47
2024-02-29T03:11:32.578Z,46.30
2024-02-29T03:15:33.724Z,49.23
2024-02-29T03:19:34.693Z,39.67
2024-02-29T03:23:35.868Z,38.93
2024-02-29T03:27:37.032Z,40.97
2024-02-29T03:31:38.389Z,39.13
2024-02-29T03:35:39.533Z,42.10
2024-02-29T03:39:40.735Z,43.37
2024-02-29T03:43:41.729Z,43.00
2024-02-29T03:47:42.880Z,39.27
2024-02-29T03:51:43.918Z,40.43
2024-02-29T03:55:48.521Z,40.97
2024-02-29T03:59:49.532Z,39.03
2024-02-29T04:03:50.717Z,43.57
2024-02-29T04:07:53.630Z,47.33
2024-02-29T04:11:54.786Z,45.63
2024-02-29T04:15:55.976Z,49.87
2024-02-29T04:19:56.952Z,50.03
2024-02-29T04:23:58.179Z,53.67
2024-02-29T04:27:59.445Z,51.23
2024-02-29T04:32:00.588Z,69.77
2024-02-29T04:36:02.059Z,67.33
2024-02-29T04:40:05.615Z,65.03
2024-02-29T04:44:08.136Z,66.27
2024-02-29T04:48:09.266Z,67.13
2024-02-29T04:52:10.667Z,61.80
2024-02-29T04:56:11.861Z,69.90
2024-02-29T05:00:13.662Z,84.93
2024-02-29T05:04:15.549Z,74.87
2024-02-29T05:08:16.779Z,71.47
2024-02-29T05:12:18.275Z,58.93
2024-02-29T05:16:21.402Z,60.00
2024-02-29T05:20:22.624Z,55.00
2024-02-29T05:24:23.791Z,55.23
2024-02-29T05:28:24.917Z,52.63
2024-02-29T05:32:25.949Z,60.20
2024-02-29T05:36:27.732Z,76.47
2024-02-29T05:40:28.933Z,94.30
2024-02-29T05:44:31.575Z,79.93
2024-02-29T05:48:34.661Z,80.03
2024-02-29T05:52:36.827Z,92.83
2024-02-29T05:56:38.062Z,91.70
2024-02-29T06:00:39.159Z,86.43
2024-02-29T06:04:40.616Z,81.93
2024-02-29T06:08:41.693Z,81.43
2024-02-29T06:12:43.297Z,92.50
2024-02-29T06:16:44.487Z,85.37
2024-02-29T06:20:45.458Z,86.20
2024-02-29T06:24:46.593Z,78.20
2024-02-29T06:28:47.676Z,86.50
2024-02-29T06:32:48.842Z,90.00
2024-02-29T06:36:50.079Z,93.10
2024-02-29T06:40:51.179Z,93.13
2024-02-29T06:44:53.179Z,88.67
2024-02-29T06:48:54.457Z,85.17
2024-02-29T06:52:58.053Z,88.03
2024-02-29T06:56:59.380Z,97.87
2024-02-29T07:01:01.646Z,95.50
2024-02-29T07:05:03.294Z,95.10
2024-02-29T07:09:04.359Z,93.20
2024-02-29T07:13:05.560Z,101.07
2024-02-29T07:17:06.879Z,103.07
2024-02-29T07:21:07.888Z,94.43
2024-02-29T07:25:09.595Z,102.37
2024-02-29T07:29:10.796Z,95.87
2024-02-29T07:33:11.779Z,93.63
2024-02-29T07:37:13.359Z,92.17
2024-02-29T07:41:14.917Z,80.37
2024-02-29T07:45:19.293Z,72.90
2024-02-29T07:49:19.462Z,74.13
2024-02-29T07:53:20.564Z,63.20
2024-02-29T07:57:21.759Z,68.07
2024-02-29T08:01:22.937Z,76.07
2024-02-29T08:05:25.146Z,66.63
2024-02-29T08:09:26.286Z,76.37
2024-02-29T08:13:27.359Z,74.83
2024-02-29T08:17:29.141Z,79.67
2024-02-29T08:21:32.153Z,68.60
2024-02-29T08:25:33.139Z,73.43
2024-02-29T08:29:34.139Z,64.47
2024-02-29T08:33:35.204Z,68.50
2024-02-29T08:37:36.487Z,66.80
2024-02-29T08:41:37.899Z,65.90
2024-02-29T08:45:39.365Z,64.30
2024-02-29T08:49:42.514Z,55.23
2024-02-29T08:53:43.637Z,48.17
2024-02-29T08:57:45.020Z,54.03
2024-02-29T09:01:46.689Z,50.43
2024-02-29T09:05:47.994Z,58.43
2024-02-29T09:09:51.124Z,56.43
2024-02-29T09:13:52.454Z,50.27
2024-02-29T09:17:53.711Z,51.40
2024-02-29T09:21:54.856Z,53.10
2024-02-29T09:25:56.081Z,53.13
2024-02-29T09:29:58.799Z,53.40
2024-02-29T09:34:00.244Z,47.60
2024-02-29T09:38:01.780Z,56.03
2024-02-29T09:46:10.286Z,51.77
2024-02-29T09:50:11.999Z,48.87
2024-02-29T09:54:18.017Z,61.07
2024-02-29T09:58:21.332Z,59.13
2024-02-29T10:02:23.777Z,59.67
2024-02-29T10:06:24.800Z,55.60
2024-02-29T10:10:26.048Z,54.47
2024-02-29T10:14:27.148Z,46.40
2024-02-29T10:18:33.930Z,54.00
2024-02-29T10:22:35.586Z,54.17
2024-02-29T10:26:36.844Z,53.33
2024-02-29T10:30:37.897Z,58.87
2024-02-29T10:34:40.547Z,55.87
2024-02-29T10:38:41.891Z,52.43
2024-02-29T10:42:43.640Z,55.00
2024-02-29T10:46:48.116Z,56.93
2024-02-29T10:51:02.009Z,54.93
2024-02-29T10:55:06.452Z,54.80
2024-02-29T10:59:08.400Z,51.70
2024-02-29T11:03:12.801Z,47.70
2024-02-29T11:07:14.535Z,51.17
2024-02-29T11:11:27.449Z,47.43
2024-02-29T11:15:28.756Z,47.97
2024-02-29T11:19:30.161Z,41.57
2024-02-29T11:23:38.538Z,43.67
2024-02-29T11:27:48.531Z,40.43
2024-02-29T11:31:57.319Z,39.80
2024-02-29T11:35:59.969Z,36.77
2024-02-29T11:40:06.750Z,34.43
2024-02-29T11:44:08.166Z,37.37
2024-02-29T11:48:09.262Z,39.80
2024-02-29T11:52:10.948Z,41.70
2024-02-29T11:56:16.004Z,37.93
2024-02-29T12:00:16.635Z,39.03
2024-02-29T12:04:17.838Z,38.73
2024-02-29T12:08:19.381Z,34.67
2024-02-29T12:12:21.331Z,39.23
2024-02-29T12:16:22.810Z,38.37
2024-02-29T12:20:23.970Z,36.70
2024-02-29T12:24:26.592Z,37.77
2024-02-29T12:28:30.854Z,30.53
2024-02-29T12:32:32.378Z,30.03
2024-02-29T12:36:33.548Z,35.50
2024-02-29T12:40:34.859Z,33.93
2024-02-29T12:44:37.632Z,37.33
2024-02-29T12:48:38.848Z,32.90
2024-02-29T12:52:39.938Z,30.30
2024-02-29T12:56:41.179Z,29.43
2024-02-29T13:00:42.863Z,29.97
2024-02-29T13:04:44.155Z,31.97
2024-02-29T13:08:45.628Z,29.10
2024-02-29T13:12:51.808Z,26.40
2024-02-29T13:16:50.027Z,29.43
2024-02-29T13:20:51.345Z,25.40
2024-02-29T13:24:52.805Z,24.30
2024-02-29T13:28:54.038Z,24.17
2024-02-29T13:32:55.082Z,25.07
2024-02-29T13:36:56.302Z,27.07
2024-02-29T13:40:57.260Z,23.90
2024-02-29T13:44:58.352Z,21.10
2024-02-29T13:49:20.311Z,22.80
2024-02-29T13:53:02.497Z,21.60
2024-02-29T13:57:03.751Z,22.00
2024-02-29T14:01:08.481Z,23.30
2024-02-29T14:05:08.330Z,22.80
2024-02-29T14:09:11.484Z,21.33
2024-02-29T14:13:12.663Z,21.00
2024-02-29T14:17:13.851Z,21.63
2024-02-29T14:21:19.521Z,18.60
2024-02-29T14:25:22.577Z,20.97
2024-02-29T14:29:23.571Z,21.50
2024-02-29T14:33:24.767Z,23.13
2024-02-29T14:37:26.162Z,23.03
2024-02-29T14:41:29.183Z,22.53
2024-02-29T14:45:30.423Z,24.37
2024-02-29T14:49:31.809Z,25.63
2024-02-29T14:53:33.694Z,27.13
2024-02-29T14:57:35.060Z,28.03
2024-02-29T15:01:36.160Z,27.50
2024-02-29T15:05:37.468Z,26.20
2024-02-29T15:09:39.374Z,27.27
2024-02-29T15:13:40.381Z,28.03
2024-02-29T15:17:41.901Z,25.93
2024-02-29T15:21:44.860Z,30.90
2024-02-29T15:25:47.553Z,27.50
2024-02-29T15:29:49.735Z,27.07
2024-02-29T15:33:50.830Z,29.47
2024-02-29T15:37:52.008Z,27.90
2024-02-29T15:41:53.237Z,26.07
2024-02-29T15:45:54.521Z,31.93
2024-02-29T15:49:56.289Z,28.10
2024-02-29T15:53:57.618Z,30.27
2024-02-29T15:57:59.076Z,37.20
2024-02-29T16:02:00.222Z,35.73
2024-02-29T16:06:01.557Z,29.97
2024-02-29T16:10:02.855Z,32.63
2024-02-29T16:14:04.440Z,30.23
2024-02-29T16:18:06.633Z,35.57
2024-02-29T16:22:07.683Z,32.53
2024-02-29T16:26:08.927Z,33.93
2024-02-29T16:30:10.398Z,31.83
2024-02-29T16:34:12.073Z,32.63
2024-02-29T16:38:13.285Z,36.77
2024-02-29T16:42:14.519Z,37.77
2024-02-29T16:46:17.387Z,34.67
2024-02-29T16:50:18.656Z,36.67
2024-02-29T16:54:20.155Z,32.03
2024-02-29T16:58:21.554Z,31.17
2024-02-29T17:02:22.744Z,31.97
2024-02-29T17:06:24.241Z,35.07
2024-02-29T17:10:25.354Z,36.93
2024-02-29T17:14:26.531Z,34.60
2024-02-29T17:18:27.873Z,31.20
2024-02-29T17:22:29.209Z,35.08
2024-02-29T17:26:31.396Z,32.50
2024-02-29T17:30:33.089Z,30.90
2024-02-29T17:34:34.100Z,34.13
2024-02-29T17:38:35.327Z,40.00
2024-02-29T17:42:36.564Z,37.37
2024-02-29T17:46:37.690Z,38.90
2024-02-29T17:50:39.753Z,41.37
2024-02-29T17:54:40.932Z,37.57
2024-02-29T17:58:42.071Z,43.50
2024-02-29T18:02:43.289Z,36.73
2024-02-29T18:06:44.353Z,42.57
2024-02-29T18:10:45.377Z,35.80
2024-02-29T18:14:46.420Z,40.13
2024-02-29T18:18:47.520Z,35.77
2024-02-29T18:22:49.647Z,42.27
2024-02-29T18:26:50.693Z,37.37
2024-02-29T18:30:51.745Z,36.70
2024-02-29T18:34:52.992Z,33.73
2024-02-29T18:38:55.352Z,34.20
2024-02-29T18:42:56.500Z,33.63
2024-02-29T18:47:00.081Z,54.40
2024-02-29T18:51:01.333Z,44.87
2024-02-29T18:55:02.550Z,35.77
2024-02-29T18:59:03.849Z,43.67
2024-02-29T19:03:04.886Z,45.53
2024-02-29T19:07:06.139Z,49.97
2024-02-29T19:11:07.385Z,46.03
2024-02-29T19:15:09.804Z,47.90
2024-02-29T19:19:13.227Z,45.50
2024-02-29T19:23:14.382Z,40.37
2024-02-29T19:27:15.529Z,50.33
2024-02-29T19:31:16.602Z,47.27
2024-02-29T19:35:17.719Z,49.90
2024-02-29T19:39:18.890Z,50.17
2024-02-29T19:43:21.986Z,50.77
2024-02-29T19:47:23.515Z,59.90
2024-02-29T19:51:24.675Z,50.90
2024-02-29T19:55:25.891Z,50.20
2024-02-29T19:59:27.060Z,52.80
2024-02-29T20:03:30.038Z,50.93
2024-02-29T20:07:31.127Z,49.53
2024-02-29T20:11:32.220Z,53.77
2024-02-29T20:15:33.272Z,52.93
2024-02-29T20:19:36.458Z,60.63
2024-02-29T20:23:37.292Z,51.83
2024-02-29T20:27:38.400Z,54.40
2024-02-29T20:31:39.531Z,58.27
2024-02-29T20:35:40.640Z,54.57
2024-02-29T20:39:41.653Z,57.73
2024-02-29T20:43:42.808Z,73.87
2024-02-29T20:47:45.068Z,67.10
2024-02-29T20:51:46.162Z,60.48
2024-02-29T20:55:47.179Z,63.27
2024-02-29T20:59:48.272Z,56.80
2024-02-29T21:03:50.101Z,56.97
2024-02-29T21:07:51.152Z,54.53
2024-02-29T21:16:03.330Z,56.87
2024-02-29T21:20:05.261Z,60.67
2024-02-29T21:24:06.477Z,63.47
2024-02-29T21:28:07.638Z,58.73
2024-02-29T21:32:08.852Z,50.27
2024-02-29T21:36:10.826Z,58.07
2024-02-29T21:40:12.565Z,57.53
2024-02-29T21:44:13.522Z,55.43
2024-02-29T21:48:14.633Z,68.27
2024-02-29T21:52:16.014Z,65.80
2024-02-29T21:56:17.106Z,55.13
2024-02-29T22:00:18.115Z,64.03
2024-02-29T22:04:19.410Z,65.30
2024-02-29T22:08:21.124Z,55.97
2024-02-29T22:12:22.265Z,61.40
2024-02-29T22:16:23.313Z,58.20
2024-02-29T22:20:24.364Z,64.40
2024-02-29T22:24:25.371Z,59.10
2024-02-29T22:28:26.435Z,61.03
2024-02-29T22:32:27.482Z,64.77
2024-02-29T22:36:28.567Z,56.37
2024-02-29T22:40:30.001Z,59.80
2024-02-29T22:44:33.335Z,73.73
2024-02-29T22:48:34.876Z,61.80
2024-02-29T22:52:36.079Z,64.22
2024-02-29T22:56:37.235Z,59.80
2024-02-29T23:00:39.280Z,58.33
2024-02-29T23:04:40.257Z,60.33
2024-02-29T23:08:41.845Z,60.70
2024-02-29T23:12:43.648Z,64.60
2024-02-29T23:16:44.763Z,56.43
2024-02-29T23:20:45.977Z,64.70
2024-02-29T23:24:47.405Z,60.03
2024-02-29T23:28:48.655Z,59.60
2024-02-29T23:32:49.991Z,55.27
2024-02-29T23:36:51.108Z,58.77
2024-02-29T23:40:52.252Z,65.73
2024-02-29T23:44:53.372Z,50.30
2024-02-29T23:48:54.536Z,64.63
2024-02-29T23:52:55.606Z,54.67
2024-02-29T23:56:57.727Z,53.97
